FYT1643 LOWG-LIRF
Flight info
| Callsign | FYT1643 |
|---|---|
| Flight time | 1h 5m |
| Altitude | 33000 |
| Route | RADLY DCT RIFEN DCT ROSKA DCT MOGPU T128 NIKMA/N0392F190 T369 RITEB |
| Aircraft | A321/M-SDE1FGHIJ1RWXY/S |
Departure
| Time | 2026-05-06 22:11 |
|---|---|
| Airport | Graz Airport (LOWG) |
Arrival
| Time | 2026-05-06 23:16 |
|---|---|
| Airport | Rome–Fiumicino Leonardo da Vinci International Airport (LIRF) |
| Time | Latitude | Longitude | Altitude | Speed | Heading |
|---|---|---|---|---|---|
| 2026-05-06 21:39 | 46.99587 | 15.44323 | 1113 ft | 0 kts | 126° |
| 2026-05-06 22:05 | 46.99586 | 15.44324 | 1113 ft | 0 kts | 126° |
| 2026-05-06 22:05 | 46.99584 | 15.44326 | 1113 ft | 0 kts | 155° |
| 2026-05-06 22:05 | 46.99580 | 15.44324 | 1113 ft | 0 kts | 204° |
| 2026-05-06 22:06 | 46.99573 | 15.44310 | 1113 ft | 2 kts | 243° |
| 2026-05-06 22:06 | 46.99575 | 15.44281 | 1113 ft | 3 kts | 289° |
| 2026-05-06 22:06 | 46.99587 | 15.44252 | 1113 ft | 4 kts | 312° |
| 2026-05-06 22:06 | 46.99624 | 15.44225 | 1113 ft | 7 kts | 342° |
| 2026-05-06 22:07 | 46.99683 | 15.44206 | 1114 ft | 9 kts | 348° |
| 2026-05-06 22:07 | 46.99757 | 15.44186 | 1115 ft | 11 kts | 349° |
| 2026-05-06 22:07 | 46.99840 | 15.44163 | 1115 ft | 12 kts | 348° |
| 2026-05-06 22:07 | 46.99930 | 15.44136 | 1116 ft | 13 kts | 349° |
| 2026-05-06 22:08 | 47.00019 | 15.44113 | 1117 ft | 13 kts | 349° |
| 2026-05-06 22:08 | 47.00109 | 15.44090 | 1118 ft | 13 kts | 349° |
| 2026-05-06 22:08 | 47.00197 | 15.44066 | 1118 ft | 13 kts | 349° |
| 2026-05-06 22:08 | 47.00283 | 15.44036 | 1119 ft | 12 kts | 331° |
| 2026-05-06 22:09 | 47.00342 | 15.43942 | 1120 ft | 12 kts | 303° |
| 2026-05-06 22:09 | 47.00388 | 15.43844 | 1121 ft | 2 kts | 304° |
| 2026-05-06 22:09 | 47.00389 | 15.43842 | 1121 ft | 2 kts | 304° |
| 2026-05-06 22:09 | 47.00420 | 15.43773 | 1122 ft | 14 kts | 296° |
| 2026-05-06 22:10 | 47.00378 | 15.43615 | 1122 ft | 24 kts | 189° |
| 2026-05-06 22:10 | 47.00126 | 15.43681 | 1119 ft | 64 kts | 169° |
| 2026-05-06 22:10 | 46.99461 | 15.43864 | 1114 ft | 129 kts | 168° |
| 2026-05-06 22:10 | 46.98380 | 15.44157 | 1157 ft | 177 kts | 169° |
| 2026-05-06 22:11 | 46.97165 | 15.44513 | 1684 ft | 182 kts | 171° |
| 2026-05-06 22:11 | 46.95928 | 15.44670 | 2429 ft | 180 kts | 176° |
| 2026-05-06 22:11 | 46.94678 | 15.44532 | 2886 ft | 186 kts | 205° |
| 2026-05-06 22:11 | 46.93528 | 15.43570 | 3259 ft | 200 kts | 215° |
| 2026-05-06 22:12 | 46.92328 | 15.42428 | 3711 ft | 211 kts | 216° |
| 2026-05-06 22:12 | 46.91094 | 15.41262 | 4346 ft | 214 kts | 215° |
| 2026-05-06 22:12 | 46.89848 | 15.40109 | 5025 ft | 214 kts | 215° |
| 2026-05-06 22:12 | 46.88605 | 15.38973 | 5715 ft | 213 kts | 215° |
| 2026-05-06 22:13 | 46.87349 | 15.37837 | 6373 ft | 214 kts | 214° |
| 2026-05-06 22:13 | 46.86038 | 15.36801 | 6971 ft | 218 kts | 211° |
| 2026-05-06 22:13 | 46.84635 | 15.35736 | 7229 ft | 239 kts | 211° |
| 2026-05-06 22:13 | 46.83110 | 15.34591 | 7597 ft | 256 kts | 210° |
| 2026-05-06 22:14 | 46.81495 | 15.33390 | 8172 ft | 264 kts | 210° |
| 2026-05-06 22:14 | 46.79871 | 15.32184 | 8941 ft | 265 kts | 210° |
| 2026-05-06 22:14 | 46.78237 | 15.30970 | 9728 ft | 265 kts | 210° |
| 2026-05-06 22:14 | 46.76621 | 15.29768 | 10451 ft | 266 kts | 210° |
| 2026-05-06 22:15 | 46.74932 | 15.28507 | 10817 ft | 281 kts | 210° |
| 2026-05-06 22:15 | 46.73135 | 15.27167 | 11120 ft | 297 kts | 210° |
| 2026-05-06 22:15 | 46.71268 | 15.25775 | 11440 ft | 311 kts | 209° |
| 2026-05-06 22:15 | 46.69310 | 15.24319 | 11991 ft | 317 kts | 209° |
| 2026-05-06 22:16 | 46.67366 | 15.22880 | 12644 ft | 319 kts | 209° |
| 2026-05-06 22:16 | 46.65486 | 15.21178 | 13255 ft | 321 kts | 218° |
| 2026-05-06 22:16 | 46.63864 | 15.18957 | 13864 ft | 324 kts | 228° |
| 2026-05-06 22:16 | 46.62489 | 15.16316 | 14454 ft | 328 kts | 233° |
| 2026-05-06 22:17 | 46.61182 | 15.13602 | 15013 ft | 331 kts | 233° |
| 2026-05-06 22:17 | 46.59866 | 15.10844 | 15570 ft | 334 kts | 233° |
| 2026-05-06 22:17 | 46.58546 | 15.08086 | 16079 ft | 339 kts | 234° |
| 2026-05-06 22:17 | 46.57188 | 15.05250 | 16605 ft | 342 kts | 233° |
| 2026-05-06 22:18 | 46.55834 | 15.02428 | 17093 ft | 346 kts | 233° |
| 2026-05-06 22:18 | 46.54456 | 14.99557 | 17591 ft | 349 kts | 233° |
| 2026-05-06 22:18 | 46.53075 | 14.96687 | 18098 ft | 352 kts | 233° |
| 2026-05-06 22:18 | 46.51670 | 14.93769 | 18589 ft | 354 kts | 233° |
| 2026-05-06 22:19 | 46.50258 | 14.90844 | 19109 ft | 356 kts | 233° |
| 2026-05-06 22:19 | 46.48826 | 14.87879 | 19613 ft | 358 kts | 233° |
| 2026-05-06 22:19 | 46.47410 | 14.84951 | 20114 ft | 359 kts | 233° |
| 2026-05-06 22:19 | 46.45967 | 14.81965 | 20611 ft | 361 kts | 234° |
| 2026-05-06 22:20 | 46.44530 | 14.78997 | 21110 ft | 362 kts | 234° |
| 2026-05-06 22:20 | 46.43087 | 14.76019 | 21612 ft | 363 kts | 234° |
| 2026-05-06 22:20 | 46.41653 | 14.73061 | 22078 ft | 364 kts | 234° |
| 2026-05-06 22:20 | 46.40200 | 14.70069 | 22530 ft | 366 kts | 233° |
| 2026-05-06 22:21 | 46.38729 | 14.67048 | 22976 ft | 368 kts | 233° |
| 2026-05-06 22:21 | 46.37250 | 14.64011 | 23422 ft | 369 kts | 233° |
| 2026-05-06 22:21 | 46.35791 | 14.61017 | 23849 ft | 370 kts | 234° |
| 2026-05-06 22:21 | 46.34299 | 14.57960 | 24252 ft | 372 kts | 233° |
| 2026-05-06 22:22 | 46.32798 | 14.54887 | 24657 ft | 374 kts | 234° |
| 2026-05-06 22:22 | 46.31294 | 14.51813 | 25048 ft | 376 kts | 234° |
| 2026-05-06 22:22 | 46.29795 | 14.48752 | 25450 ft | 378 kts | 234° |
| 2026-05-06 22:22 | 46.28287 | 14.45676 | 25841 ft | 379 kts | 234° |
| 2026-05-06 22:23 | 46.26743 | 14.42527 | 26184 ft | 381 kts | 234° |
| 2026-05-06 22:23 | 46.25212 | 14.39410 | 26542 ft | 383 kts | 234° |
| 2026-05-06 22:23 | 46.23689 | 14.36310 | 26889 ft | 384 kts | 234° |
| 2026-05-06 22:23 | 46.22143 | 14.33168 | 27257 ft | 385 kts | 233° |
| 2026-05-06 22:24 | 46.20593 | 14.30021 | 27596 ft | 387 kts | 233° |
| 2026-05-06 22:24 | 46.19025 | 14.26847 | 27908 ft | 389 kts | 233° |
| 2026-05-06 22:24 | 46.17461 | 14.23680 | 28222 ft | 391 kts | 233° |
| 2026-05-06 22:24 | 46.15888 | 14.20500 | 28552 ft | 392 kts | 233° |
| 2026-05-06 22:25 | 46.14294 | 14.17281 | 28860 ft | 394 kts | 233° |
| 2026-05-06 22:25 | 46.12716 | 14.14095 | 29223 ft | 394 kts | 233° |
| 2026-05-06 22:25 | 46.11134 | 14.10904 | 29638 ft | 392 kts | 233° |
| 2026-05-06 22:25 | 46.09541 | 14.07697 | 30044 ft | 391 kts | 233° |
| 2026-05-06 22:26 | 46.07970 | 14.04536 | 30441 ft | 389 kts | 233° |
| 2026-05-06 22:26 | 46.06405 | 14.01397 | 30831 ft | 388 kts | 233° |
| 2026-05-06 22:26 | 46.04838 | 13.98253 | 31179 ft | 388 kts | 233° |
| 2026-05-06 22:26 | 46.03277 | 13.95122 | 31486 ft | 388 kts | 233° |
| 2026-05-06 22:27 | 46.01697 | 13.91960 | 31811 ft | 388 kts | 233° |
| 2026-05-06 22:27 | 46.00136 | 13.88835 | 32112 ft | 388 kts | 233° |
| 2026-05-06 22:27 | 45.98565 | 13.85700 | 32390 ft | 388 kts | 233° |
| 2026-05-06 22:27 | 45.96994 | 13.82566 | 32641 ft | 389 kts | 233° |
| 2026-05-06 22:28 | 45.95408 | 13.79402 | 32892 ft | 390 kts | 233° |
| 2026-05-06 22:28 | 45.93825 | 13.76252 | 32942 ft | 390 kts | 233° |
| 2026-05-06 22:28 | 45.90660 | 13.69963 | 32950 ft | 390 kts | 233° |
| 2026-05-06 22:29 | 45.87474 | 13.63666 | 32944 ft | 389 kts | 232° |
| 2026-05-06 22:29 | 45.84030 | 13.57737 | 32946 ft | 389 kts | 227° |
| 2026-05-06 22:30 | 45.80206 | 13.52289 | 32935 ft | 389 kts | 224° |
| 2026-05-06 22:30 | 45.76311 | 13.46936 | 32947 ft | 388 kts | 224° |
| 2026-05-06 22:31 | 45.72440 | 13.41635 | 32935 ft | 388 kts | 224° |
| 2026-05-06 22:31 | 45.68548 | 13.36319 | 32930 ft | 387 kts | 224° |
| 2026-05-06 22:32 | 45.64674 | 13.31043 | 32926 ft | 387 kts | 223° |
| 2026-05-06 22:32 | 45.60789 | 13.25760 | 32924 ft | 386 kts | 223° |
| 2026-05-06 22:33 | 45.56894 | 13.20477 | 32919 ft | 386 kts | 224° |
| 2026-05-06 22:33 | 45.53005 | 13.15210 | 32910 ft | 386 kts | 224° |
| 2026-05-06 22:34 | 45.49124 | 13.09965 | 32915 ft | 386 kts | 224° |
| 2026-05-06 22:34 | 45.45239 | 13.04728 | 32915 ft | 385 kts | 224° |
| 2026-05-06 22:35 | 45.41358 | 12.99501 | 32908 ft | 385 kts | 224° |
| 2026-05-06 22:35 | 45.37464 | 12.94316 | 32907 ft | 386 kts | 221° |
| 2026-05-06 22:36 | 45.33129 | 12.89765 | 32912 ft | 387 kts | 213° |
| 2026-05-06 22:36 | 45.28374 | 12.86263 | 32904 ft | 389 kts | 205° |
| 2026-05-06 22:37 | 45.23198 | 12.83839 | 32916 ft | 393 kts | 198° |
| 2026-05-06 22:37 | 45.17879 | 12.82207 | 32916 ft | 395 kts | 196° |
| 2026-05-06 22:38 | 45.12498 | 12.80600 | 32924 ft | 395 kts | 196° |
| 2026-05-06 22:38 | 45.07111 | 12.79002 | 32925 ft | 395 kts | 196° |
| 2026-05-06 22:39 | 45.01729 | 12.77415 | 32923 ft | 396 kts | 196° |
| 2026-05-06 22:39 | 44.96368 | 12.75841 | 32927 ft | 396 kts | 196° |
| 2026-05-06 22:40 | 44.90993 | 12.74261 | 32923 ft | 396 kts | 196° |
| 2026-05-06 22:40 | 44.85612 | 12.72685 | 32925 ft | 396 kts | 196° |
| 2026-05-06 22:41 | 44.77525 | 12.70324 | 32928 ft | 396 kts | 196° |
| 2026-05-06 22:42 | 44.72132 | 12.68752 | 32929 ft | 396 kts | 196° |
| 2026-05-06 22:42 | 44.66765 | 12.67191 | 32931 ft | 396 kts | 196° |
| 2026-05-06 22:43 | 44.61362 | 12.65623 | 32930 ft | 397 kts | 196° |
| 2026-05-06 22:43 | 44.55980 | 12.64061 | 32930 ft | 396 kts | 196° |
| 2026-05-06 22:44 | 44.50600 | 12.62506 | 32933 ft | 397 kts | 196° |
| 2026-05-06 22:44 | 44.45211 | 12.60949 | 32933 ft | 397 kts | 196° |
| 2026-05-06 22:45 | 44.39787 | 12.59385 | 32937 ft | 396 kts | 196° |
| 2026-05-06 22:45 | 44.34411 | 12.57842 | 32934 ft | 396 kts | 196° |
| 2026-05-06 22:46 | 44.29017 | 12.56293 | 32933 ft | 396 kts | 196° |
| 2026-05-06 22:46 | 44.23664 | 12.54760 | 32937 ft | 396 kts | 196° |
| 2026-05-06 22:47 | 44.18264 | 12.53214 | 32941 ft | 396 kts | 196° |
| 2026-05-06 22:47 | 44.12897 | 12.51683 | 32941 ft | 396 kts | 196° |
| 2026-05-06 22:48 | 44.07498 | 12.50145 | 32947 ft | 396 kts | 196° |
| 2026-05-06 22:48 | 44.02101 | 12.48609 | 32940 ft | 395 kts | 196° |
| 2026-05-06 22:49 | 43.96719 | 12.47079 | 32950 ft | 396 kts | 196° |
| 2026-05-06 22:49 | 43.91349 | 12.45557 | 32697 ft | 396 kts | 195° |
| 2026-05-06 22:49 | 43.88641 | 12.44792 | 32422 ft | 394 kts | 196° |
| 2026-05-06 22:50 | 43.85972 | 12.44038 | 32151 ft | 393 kts | 195° |
| 2026-05-06 22:50 | 43.83324 | 12.43294 | 31882 ft | 391 kts | 196° |
| 2026-05-06 22:50 | 43.80640 | 12.42535 | 31597 ft | 390 kts | 195° |
| 2026-05-06 22:50 | 43.78000 | 12.41789 | 31344 ft | 391 kts | 196° |
| 2026-05-06 22:51 | 43.75348 | 12.41042 | 31078 ft | 390 kts | 196° |
| 2026-05-06 22:51 | 43.72710 | 12.40299 | 30806 ft | 391 kts | 196° |
| 2026-05-06 22:51 | 43.70033 | 12.39544 | 30533 ft | 392 kts | 196° |
| 2026-05-06 22:51 | 43.67369 | 12.38792 | 30267 ft | 393 kts | 195° |
| 2026-05-06 22:52 | 43.64682 | 12.38114 | 30004 ft | 394 kts | 194° |
| 2026-05-06 22:52 | 43.61970 | 12.37481 | 29740 ft | 395 kts | 194° |
| 2026-05-06 22:52 | 43.59254 | 12.36857 | 29472 ft | 396 kts | 194° |
| 2026-05-06 22:52 | 43.56533 | 12.36229 | 29207 ft | 398 kts | 194° |
| 2026-05-06 22:53 | 43.53812 | 12.35596 | 28950 ft | 399 kts | 194° |
| 2026-05-06 22:53 | 43.51071 | 12.34957 | 28674 ft | 400 kts | 193° |
| 2026-05-06 22:53 | 43.48344 | 12.34322 | 28412 ft | 400 kts | 193° |
| 2026-05-06 22:53 | 43.45586 | 12.33677 | 28146 ft | 398 kts | 193° |
| 2026-05-06 22:54 | 43.42902 | 12.33050 | 27883 ft | 397 kts | 193° |
| 2026-05-06 22:54 | 43.40153 | 12.32410 | 27604 ft | 396 kts | 193° |
| 2026-05-06 22:54 | 43.37455 | 12.31780 | 27315 ft | 395 kts | 193° |
| 2026-05-06 22:54 | 43.34777 | 12.31154 | 26996 ft | 393 kts | 193° |
| 2026-05-06 22:55 | 43.32058 | 12.30520 | 26597 ft | 392 kts | 193° |
| 2026-05-06 22:55 | 43.29412 | 12.29904 | 26128 ft | 389 kts | 193° |
| 2026-05-06 22:55 | 43.26732 | 12.29280 | 25615 ft | 386 kts | 193° |
| 2026-05-06 22:55 | 43.24125 | 12.28674 | 25069 ft | 383 kts | 193° |
| 2026-05-06 22:56 | 43.21512 | 12.28067 | 24539 ft | 379 kts | 193° |
| 2026-05-06 22:56 | 43.18914 | 12.27463 | 24008 ft | 375 kts | 193° |
| 2026-05-06 22:56 | 43.16379 | 12.26874 | 23468 ft | 373 kts | 193° |
| 2026-05-06 22:56 | 43.13825 | 12.26279 | 22902 ft | 371 kts | 192° |
| 2026-05-06 22:57 | 43.11315 | 12.25697 | 22396 ft | 368 kts | 192° |
| 2026-05-06 22:57 | 43.08794 | 12.25113 | 21902 ft | 365 kts | 192° |
| 2026-05-06 22:57 | 43.06313 | 12.24538 | 21405 ft | 362 kts | 192° |
| 2026-05-06 22:57 | 43.03830 | 12.23964 | 20906 ft | 360 kts | 192° |
| 2026-05-06 22:58 | 43.01390 | 12.23399 | 20407 ft | 358 kts | 192° |
| 2026-05-06 22:58 | 42.98950 | 12.22836 | 19929 ft | 355 kts | 192° |
| 2026-05-06 22:58 | 42.96538 | 12.22280 | 19449 ft | 353 kts | 192° |
| 2026-05-06 22:58 | 42.94111 | 12.21721 | 18982 ft | 350 kts | 191° |
| 2026-05-06 22:59 | 42.91721 | 12.21172 | 18497 ft | 349 kts | 191° |
| 2026-05-06 22:59 | 42.89358 | 12.20629 | 18014 ft | 347 kts | 191° |
| 2026-05-06 22:59 | 42.86987 | 12.20086 | 17528 ft | 345 kts | 191° |
| 2026-05-06 22:59 | 42.84616 | 12.19544 | 17034 ft | 344 kts | 191° |
| 2026-05-06 23:00 | 42.82254 | 12.19003 | 16528 ft | 344 kts | 191° |
| 2026-05-06 23:00 | 42.79931 | 12.18471 | 16030 ft | 343 kts | 191° |
| 2026-05-06 23:00 | 42.77563 | 12.17928 | 15524 ft | 343 kts | 191° |
| 2026-05-06 23:00 | 42.75231 | 12.17394 | 15017 ft | 342 kts | 191° |
| 2026-05-06 23:01 | 42.72869 | 12.16852 | 14510 ft | 341 kts | 192° |
| 2026-05-06 23:01 | 42.70536 | 12.16319 | 14021 ft | 340 kts | 192° |
| 2026-05-06 23:01 | 42.68212 | 12.15789 | 13533 ft | 339 kts | 192° |
| 2026-05-06 23:01 | 42.65904 | 12.15261 | 13059 ft | 337 kts | 191° |
| 2026-05-06 23:02 | 42.63609 | 12.14737 | 12573 ft | 335 kts | 191° |
| 2026-05-06 23:02 | 42.61310 | 12.14211 | 12084 ft | 334 kts | 191° |
| 2026-05-06 23:02 | 42.59055 | 12.13697 | 11607 ft | 332 kts | 191° |
| 2026-05-06 23:02 | 42.56786 | 12.13179 | 11126 ft | 329 kts | 191° |
| 2026-05-06 23:03 | 42.54547 | 12.12672 | 10660 ft | 327 kts | 191° |
| 2026-05-06 23:03 | 42.52338 | 12.12171 | 10351 ft | 317 kts | 191° |
| 2026-05-06 23:03 | 42.50254 | 12.11700 | 10213 ft | 291 kts | 191° |
| 2026-05-06 23:03 | 42.48304 | 12.11260 | 10118 ft | 275 kts | 191° |
| 2026-05-06 23:04 | 42.46453 | 12.10840 | 10029 ft | 271 kts | 191° |
| 2026-05-06 23:04 | 42.44591 | 12.10415 | 9713 ft | 273 kts | 191° |
| 2026-05-06 23:04 | 42.42735 | 12.09993 | 9507 ft | 264 kts | 191° |
| 2026-05-06 23:04 | 42.40968 | 12.09595 | 9461 ft | 249 kts | 191° |
| 2026-05-06 23:05 | 42.39280 | 12.09288 | 9388 ft | 243 kts | 182° |
| 2026-05-06 23:05 | 42.37597 | 12.09587 | 9166 ft | 247 kts | 167° |
| 2026-05-06 23:05 | 42.35985 | 12.10251 | 8814 ft | 243 kts | 164° |
| 2026-05-06 23:05 | 42.34414 | 12.10947 | 8489 ft | 233 kts | 164° |
| 2026-05-06 23:06 | 42.32899 | 12.11614 | 8265 ft | 226 kts | 165° |
| 2026-05-06 23:06 | 42.31382 | 12.12268 | 8050 ft | 229 kts | 165° |
| 2026-05-06 23:06 | 42.29881 | 12.12882 | 7754 ft | 226 kts | 167° |
| 2026-05-06 23:06 | 42.28347 | 12.13257 | 7375 ft | 220 kts | 172° |
| 2026-05-06 23:07 | 42.26856 | 12.13547 | 6995 ft | 215 kts | 174° |
| 2026-05-06 23:07 | 42.25383 | 12.13834 | 6608 ft | 211 kts | 174° |
| 2026-05-06 23:07 | 42.23930 | 12.14126 | 6196 ft | 210 kts | 173° |
| 2026-05-06 23:07 | 42.22500 | 12.14423 | 5840 ft | 208 kts | 173° |
| 2026-05-06 23:08 | 42.21081 | 12.14727 | 5545 ft | 208 kts | 173° |
| 2026-05-06 23:08 | 42.19660 | 12.15034 | 5268 ft | 207 kts | 172° |
| 2026-05-06 23:08 | 42.18243 | 12.15344 | 4990 ft | 206 kts | 172° |
| 2026-05-06 23:08 | 42.16831 | 12.15656 | 4722 ft | 205 kts | 171° |
| 2026-05-06 23:09 | 42.15420 | 12.15968 | 4459 ft | 204 kts | 172° |
| 2026-05-06 23:09 | 42.14038 | 12.16272 | 4193 ft | 203 kts | 171° |
| 2026-05-06 23:09 | 42.12633 | 12.16581 | 3930 ft | 202 kts | 171° |
| 2026-05-06 23:09 | 42.11268 | 12.16884 | 3677 ft | 201 kts | 170° |
| 2026-05-06 23:10 | 42.09886 | 12.17188 | 3409 ft | 201 kts | 170° |
| 2026-05-06 23:10 | 42.08484 | 12.17312 | 3156 ft | 200 kts | 179° |
| 2026-05-06 23:10 | 42.07096 | 12.17278 | 2920 ft | 199 kts | 178° |
| 2026-05-06 23:10 | 42.05730 | 12.17446 | 2666 ft | 197 kts | 169° |
| 2026-05-06 23:11 | 42.04399 | 12.17858 | 2591 ft | 196 kts | 164° |
| 2026-05-06 23:11 | 42.03088 | 12.18387 | 2549 ft | 196 kts | 161° |
| 2026-05-06 23:11 | 42.01788 | 12.18942 | 2505 ft | 197 kts | 161° |
| 2026-05-06 23:11 | 42.00480 | 12.19500 | 2471 ft | 198 kts | 161° |
| 2026-05-06 23:12 | 41.99162 | 12.20055 | 2475 ft | 198 kts | 161° |
| 2026-05-06 23:12 | 41.97907 | 12.20581 | 2477 ft | 178 kts | 161° |
| 2026-05-06 23:12 | 41.96727 | 12.21075 | 2466 ft | 177 kts | 161° |
| 2026-05-06 23:12 | 41.95548 | 12.21565 | 2271 ft | 176 kts | 161° |
| 2026-05-06 23:13 | 41.94421 | 12.22036 | 2025 ft | 162 kts | 160° |
| 2026-05-06 23:13 | 41.93378 | 12.22471 | 1798 ft | 154 kts | 160° |
| 2026-05-06 23:13 | 41.92348 | 12.22903 | 1607 ft | 154 kts | 160° |
| 2026-05-06 23:13 | 41.91319 | 12.23335 | 1417 ft | 155 kts | 160° |
| 2026-05-06 23:14 | 41.90304 | 12.23758 | 1214 ft | 151 kts | 160° |
| 2026-05-06 23:14 | 41.89349 | 12.24154 | 995 ft | 140 kts | 160° |
| 2026-05-06 23:14 | 41.88415 | 12.24548 | 819 ft | 138 kts | 160° |
| 2026-05-06 23:14 | 41.87501 | 12.24933 | 642 ft | 138 kts | 160° |
| 2026-05-06 23:15 | 41.86583 | 12.25317 | 456 ft | 137 kts | 160° |
| 2026-05-06 23:15 | 41.85675 | 12.25696 | 273 ft | 137 kts | 160° |
| 2026-05-06 23:15 | 41.84762 | 12.26079 | 88 ft | 137 kts | 161° |
| 2026-05-06 23:15 | 41.83860 | 12.26452 | 13 ft | 129 kts | 159° |
| 2026-05-06 23:16 | 41.83136 | 12.26761 | 10 ft | 86 kts | 161° |
| 2026-05-06 23:16 | 41.82730 | 12.26931 | 9 ft | 36 kts | 162° |
| 2026-05-06 23:16 | 41.82500 | 12.27031 | 9 ft | 33 kts | 161° |
| 2026-05-06 23:16 | 41.82288 | 12.27120 | 9 ft | 31 kts | 169° |
| 2026-05-06 23:17 | 41.82079 | 12.27136 | 9 ft | 29 kts | 182° |
| 2026-05-06 23:17 | 41.81885 | 12.27089 | 10 ft | 27 kts | 192° |
| 2026-05-06 23:17 | 41.81698 | 12.27054 | 10 ft | 26 kts | 175° |
| 2026-05-06 23:17 | 41.81527 | 12.27111 | 11 ft | 25 kts | 162° |
| 2026-05-06 23:18 | 41.81364 | 12.27180 | 11 ft | 23 kts | 162° |
| 2026-05-06 23:18 | 41.81209 | 12.27247 | 11 ft | 23 kts | 162° |
| 2026-05-06 23:18 | 41.81060 | 12.27307 | 11 ft | 22 kts | 163° |
| 2026-05-06 23:18 | 41.80911 | 12.27346 | 12 ft | 21 kts | 183° |
| 2026-05-06 23:19 | 41.80764 | 12.27318 | 12 ft | 21 kts | 188° |
| 2026-05-06 23:19 | 41.80656 | 12.27213 | 12 ft | 19 kts | 238° |
| 2026-05-06 23:19 | 41.80606 | 12.27044 | 12 ft | 19 kts | 250° |
| 2026-05-06 23:19 | 41.80558 | 12.26876 | 13 ft | 19 kts | 250° |
| 2026-05-06 23:20 | 41.80512 | 12.26711 | 13 ft | 18 kts | 249° |
| 2026-05-06 23:20 | 41.80468 | 12.26547 | 14 ft | 18 kts | 248° |
| 2026-05-06 23:20 | 41.80411 | 12.26397 | 14 ft | 18 kts | 217° |
| 2026-05-06 23:20 | 41.80292 | 12.26394 | 14 ft | 18 kts | 165° |
| 2026-05-06 23:21 | 41.80201 | 12.26397 | 14 ft | 7 kts | 198° |
| 2026-05-06 23:21 | 41.80151 | 12.26370 | 15 ft | 8 kts | 204° |
| 2026-05-06 23:21 | 41.80119 | 12.26313 | 15 ft | 8 kts | 266° |
| 2026-05-06 23:21 | 41.80136 | 12.26230 | 15 ft | 9 kts | 291° |
| 2026-05-06 23:22 | 41.80139 | 12.26192 | 15 ft | 3 kts | 257° |
| 2026-05-06 23:22 | 41.80121 | 12.26162 | 15 ft | 4 kts | 207° |
| 2026-05-06 23:22 | 41.80099 | 12.26155 | 15 ft | 2 kts | 194° |
| 2026-05-06 23:22 | 41.80091 | 12.26151 | 15 ft | 0 kts | 201° |